createdAt,value
2023-03-02T00:00:35.421Z,38.87
2023-03-02T00:03:07.502Z,38.86
2023-03-02T00:05:41.700Z,38.88
2023-03-02T00:08:18.401Z,39.50
2023-03-02T00:10:50.001Z,39.49
2023-03-02T00:13:21.796Z,40.45
2023-03-02T00:15:53.420Z,39.83
2023-03-02T00:18:25.055Z,39.21
2023-03-02T00:20:56.636Z,39.08
2023-03-02T00:23:28.212Z,38.62
2023-03-02T00:26:00.600Z,37.82
2023-03-02T00:28:33.607Z,38.66
2023-03-02T00:31:06.045Z,38.11
2023-03-02T00:33:37.985Z,39.01
2023-03-02T00:36:17.748Z,39.29
2023-03-02T00:38:50.255Z,37.58
2023-03-02T00:41:21.983Z,37.92
2023-03-02T00:43:53.850Z,39.92
2023-03-02T00:46:26.024Z,40.26
2023-03-02T00:48:57.662Z,39.82
2023-03-02T00:51:29.208Z,40.09
2023-03-02T00:54:00.830Z,39.83
2023-03-02T00:56:32.826Z,38.47
2023-03-02T00:59:06.708Z,39.77
2023-03-02T01:01:39.013Z,39.55
2023-03-02T01:04:10.651Z,40.14
2023-03-02T01:06:42.292Z,40.48
2023-03-02T01:09:13.964Z,39.10
2023-03-02T01:11:45.519Z,40.26
2023-03-02T01:14:17.485Z,39.49
2023-03-02T01:16:50.029Z,39.59
2023-03-02T01:23:20.425Z,38.82
2023-03-02T01:25:52.374Z,39.42
2023-03-02T01:28:24.175Z,39.05
2023-03-02T01:30:55.804Z,39.52
2023-03-02T01:33:28.049Z,39.84
2023-03-02T01:36:00.223Z,40.15
2023-03-02T01:38:31.972Z,39.72
2023-03-02T01:41:03.775Z,39.37
2023-03-02T01:43:35.612Z,39.02
2023-03-02T01:46:17.811Z,40.06
2023-03-02T01:49:04.839Z,40.21
2023-03-02T01:51:55.171Z,40.10
2023-03-02T01:54:26.934Z,39.93
2023-03-02T01:57:06.217Z,41.22
2023-03-02T01:59:41.142Z,39.00
2023-03-02T02:02:13.032Z,39.05
2023-03-02T02:04:48.990Z,39.60
2023-03-02T02:07:20.678Z,39.42
2023-03-02T02:09:52.694Z,39.09
2023-03-02T02:12:24.420Z,38.61
2023-03-02T02:14:56.070Z,39.00
2023-03-02T02:17:29.911Z,39.93
2023-03-02T02:20:04.626Z,38.26
2023-03-02T02:23:03.480Z,38.11
2023-03-02T02:25:47.966Z,38.42
2023-03-02T02:28:32.955Z,39.62
2023-03-02T02:31:23.398Z,39.65
2023-03-02T02:34:11.507Z,39.41
2023-03-02T02:36:48.355Z,40.23
2023-03-02T02:39:29.702Z,39.40
2023-03-02T02:42:07.205Z,38.50
2023-03-02T02:44:39.360Z,39.32
2023-03-02T02:47:22.265Z,39.45
2023-03-02T02:49:55.827Z,39.55
2023-03-02T02:52:29.084Z,39.18
2023-03-02T02:55:01.064Z,40.92
2023-03-02T02:57:33.000Z,39.73
2023-03-02T03:00:05.534Z,40.93
2023-03-02T03:02:45.388Z,39.10
2023-03-02T03:05:17.212Z,41.21
2023-03-02T03:07:49.783Z,40.53
2023-03-02T03:10:36.647Z,39.83
2023-03-02T03:13:12.293Z,40.67
2023-03-02T03:15:44.193Z,40.60
2023-03-02T03:18:23.146Z,40.60
2023-03-02T03:20:54.908Z,40.02
2023-03-02T03:23:26.681Z,40.68
2023-03-02T03:25:58.360Z,40.43
2023-03-02T03:28:30.297Z,40.79
2023-03-02T03:31:02.410Z,39.64
2023-03-02T03:33:34.254Z,40.22
2023-03-02T03:36:06.534Z,40.46
2023-03-02T03:38:38.179Z,41.49
2023-03-02T03:41:10.137Z,40.25
2023-03-02T03:43:41.792Z,41.33
2023-03-02T03:46:13.991Z,41.31
2023-03-02T03:48:45.724Z,40.29
2023-03-02T03:51:17.957Z,40.79
2023-03-02T03:53:51.886Z,41.34
2023-03-02T03:56:23.588Z,41.35
2023-03-02T03:58:55.964Z,40.49
2023-03-02T04:01:27.725Z,42.10
2023-03-02T04:03:59.453Z,41.71
2023-03-02T04:06:31.646Z,41.43
2023-03-02T04:09:05.240Z,41.92
2023-03-02T04:11:41.123Z,40.44
2023-03-02T04:14:13.656Z,42.35
2023-03-02T04:16:46.038Z,41.22
2023-03-02T04:19:17.987Z,41.11
2023-03-02T04:21:54.852Z,41.09
2023-03-02T04:24:27.454Z,41.55
2023-03-02T04:27:01.350Z,41.37
2023-03-02T04:29:33.543Z,41.52
2023-03-02T04:32:07.905Z,41.27
2023-03-02T04:34:41.921Z,41.33
2023-03-02T04:37:13.730Z,40.46
2023-03-02T04:39:45.367Z,42.25
2023-03-02T04:42:21.141Z,42.14
2023-03-02T04:44:52.792Z,41.92
2023-03-02T04:47:24.692Z,40.01
2023-03-02T04:49:56.271Z,39.86
2023-03-02T04:52:27.841Z,39.23
2023-03-02T04:54:59.456Z,41.25
2023-03-02T04:57:31.050Z,41.65
2023-03-02T05:00:02.786Z,41.89
2023-03-02T05:02:34.434Z,41.84
2023-03-02T05:05:06.311Z,41.85
2023-03-02T05:07:37.879Z,42.59
2023-03-02T05:10:10.031Z,40.94
2023-03-02T05:12:42.544Z,41.72
2023-03-02T05:15:14.161Z,42.41
2023-03-02T05:17:45.741Z,42.15
2023-03-02T05:20:17.900Z,40.66
2023-03-02T05:22:49.501Z,42.50
2023-03-02T05:25:21.584Z,42.66
2023-03-02T05:27:53.236Z,41.20
2023-03-02T05:30:25.260Z,42.99
2023-03-02T05:32:56.925Z,41.59
2023-03-02T05:35:28.586Z,41.88
2023-03-02T05:38:00.238Z,41.90
2023-03-02T05:40:32.461Z,43.12
2023-03-02T05:43:04.386Z,43.47
2023-03-02T05:45:38.713Z,42.51
2023-03-02T05:48:12.309Z,41.57
2023-03-02T05:50:44.163Z,43.69
2023-03-02T05:53:15.700Z,42.81
2023-03-02T05:55:47.666Z,41.64
2023-03-02T05:58:20.044Z,43.10
2023-03-02T06:00:51.645Z,42.68
2023-03-02T06:03:23.213Z,41.40
2023-03-02T06:05:55.319Z,42.18
2023-03-02T06:08:27.224Z,43.40
2023-03-02T06:10:58.932Z,41.55
2023-03-02T06:13:30.527Z,42.24
2023-03-02T06:16:02.609Z,42.11
2023-03-02T06:18:35.161Z,43.59
2023-03-02T06:21:07.234Z,41.68
2023-03-02T06:23:38.841Z,42.93
2023-03-02T06:26:11.833Z,42.72
2023-03-02T06:28:52.021Z,41.82
2023-03-02T06:31:25.267Z,42.72
2023-03-02T06:33:56.914Z,42.94
2023-03-02T06:36:29.012Z,44.00
2023-03-02T06:39:00.808Z,44.07
2023-03-02T06:41:33.382Z,42.78
2023-03-02T06:44:05.296Z,41.68
2023-03-02T06:46:38.536Z,42.95
2023-03-02T06:49:13.862Z,41.60
2023-03-02T06:51:45.810Z,44.00
2023-03-02T06:54:17.803Z,42.99
2023-03-02T06:56:49.470Z,43.24
2023-03-02T06:59:21.208Z,43.26
2023-03-02T07:01:52.963Z,42.28
2023-03-02T07:04:24.944Z,44.40
2023-03-02T07:06:56.798Z,44.44
2023-03-02T07:09:28.574Z,45.16
2023-03-02T07:12:00.286Z,44.58
2023-03-02T07:14:31.984Z,43.56
2023-03-02T07:17:06.467Z,43.05
2023-03-02T07:19:40.463Z,44.46
2023-03-02T07:22:12.636Z,44.38
2023-03-02T07:24:45.088Z,45.34
2023-03-02T07:27:16.764Z,45.11
2023-03-02T07:29:48.681Z,45.07
2023-03-02T07:32:20.465Z,43.49
2023-03-02T07:34:52.331Z,44.81
2023-03-02T07:37:24.023Z,45.03
2023-03-02T07:39:55.792Z,47.88
2023-03-02T07:42:27.584Z,45.95
2023-03-02T07:45:02.174Z,46.61
2023-03-02T07:47:33.837Z,46.54
2023-03-02T07:50:05.986Z,45.78
2023-03-02T07:52:38.577Z,45.09
2023-03-02T07:55:11.101Z,46.12
2023-03-02T07:57:43.810Z,46.29
2023-03-02T08:00:16.529Z,46.75
2023-03-02T08:02:48.157Z,48.36
2023-03-02T08:05:19.846Z,47.06
2023-03-02T08:07:51.482Z,45.31
2023-03-02T08:10:23.269Z,45.64
2023-03-02T08:12:54.941Z,46.05
2023-03-02T08:15:26.697Z,45.99
2023-03-02T08:17:58.435Z,44.24
2023-03-02T08:20:30.092Z,45.42
2023-03-02T08:23:01.733Z,45.42
2023-03-02T08:25:33.389Z,46.53
2023-03-02T08:28:05.071Z,45.44
2023-03-02T08:30:36.743Z,46.12
2023-03-02T08:33:08.416Z,44.44
2023-03-02T08:35:40.117Z,44.21
2023-03-02T08:38:11.848Z,44.97
2023-03-02T08:40:43.525Z,45.28
2023-03-02T08:43:15.077Z,45.63
2023-03-02T08:45:54.350Z,44.14
2023-03-02T08:48:28.199Z,42.69
2023-03-02T08:51:15.516Z,43.05
2023-03-02T08:53:50.375Z,43.39
2023-03-02T08:56:28.752Z,43.27
2023-03-02T08:59:07.003Z,42.17
2023-03-02T09:01:40.098Z,41.99
2023-03-02T09:04:11.889Z,43.75
2023-03-02T09:06:45.522Z,43.58
2023-03-02T09:09:17.160Z,42.35
2023-03-02T09:11:48.802Z,40.83
2023-03-02T09:14:20.574Z,41.04
2023-03-02T09:16:52.267Z,40.97
2023-03-02T09:19:23.943Z,38.76
2023-03-02T09:21:55.510Z,37.03
2023-03-02T09:24:27.145Z,37.91
2023-03-02T09:26:58.763Z,38.00
2023-03-02T09:29:30.460Z,38.85
2023-03-02T09:32:02.250Z,39.12
2023-03-02T09:34:33.985Z,38.66
2023-03-02T09:37:05.673Z,38.68
2023-03-02T09:39:38.549Z,38.12
2023-03-02T09:42:44.626Z,36.97
2023-03-02T09:45:44.144Z,36.26
2023-03-02T09:48:40.918Z,37.58
2023-03-02T09:51:35.739Z,37.61
2023-03-02T09:54:11.409Z,38.06
2023-03-02T09:56:55.189Z,36.65
2023-03-02T09:59:38.033Z,38.13
2023-03-02T10:02:15.498Z,37.44
2023-03-02T10:04:51.421Z,37.81
2023-03-02T10:07:30.529Z,38.55
2023-03-02T10:10:24.320Z,37.53
2023-03-02T10:13:14.330Z,35.96
2023-03-02T10:15:58.364Z,37.48
2023-03-02T10:18:39.080Z,38.12
2023-03-02T10:21:27.915Z,37.82
2023-03-02T10:24:32.806Z,37.73
2023-03-02T10:27:39.249Z,37.36
2023-03-02T10:30:17.261Z,36.97
2023-03-02T10:32:52.044Z,38.99
2023-03-02T10:35:26.837Z,38.68
2023-03-02T10:38:11.522Z,39.39
2023-03-02T10:40:47.633Z,40.00
2023-03-02T10:43:26.290Z,37.86
2023-03-02T10:46:07.981Z,40.32
2023-03-02T10:49:22.938Z,38.24
2023-03-02T10:52:03.677Z,36.85
2023-03-02T10:54:36.055Z,39.09
2023-03-02T10:57:28.233Z,37.74
2023-03-02T11:00:17.704Z,38.61
2023-03-02T11:02:58.120Z,37.80
2023-03-02T11:05:39.234Z,37.15
2023-03-02T11:08:18.129Z,37.92
2023-03-02T11:11:02.024Z,38.25
2023-03-02T11:13:37.153Z,38.58
2023-03-02T11:16:18.128Z,39.60
2023-03-02T11:18:57.350Z,39.02
2023-03-02T11:21:36.358Z,38.19
2023-03-02T11:24:11.444Z,38.62
2023-03-02T11:26:42.966Z,40.54
2023-03-02T11:29:28.717Z,40.19
2023-03-02T11:32:18.566Z,38.85
2023-03-02T11:35:02.828Z,38.59
2023-03-02T11:37:38.822Z,39.14
2023-03-02T11:40:24.743Z,38.53
2023-03-02T11:43:00.341Z,39.78
2023-03-02T11:45:45.872Z,40.20
2023-03-02T11:48:34.136Z,39.83
2023-03-02T11:51:21.314Z,40.01
2023-03-02T11:54:00.228Z,39.65
2023-03-02T11:56:36.641Z,40.12
2023-03-02T11:59:28.890Z,41.08
2023-03-02T12:02:02.310Z,41.20
2023-03-02T12:04:37.762Z,41.88
2023-03-02T12:07:19.893Z,40.81
2023-03-02T12:10:24.361Z,42.02
2023-03-02T12:13:19.848Z,40.71
2023-03-02T12:15:52.028Z,39.98
2023-03-02T12:18:23.678Z,42.02
2023-03-02T12:21:18.542Z,41.94
2023-03-02T12:23:50.208Z,40.58
2023-03-02T12:26:21.805Z,40.65
2023-03-02T12:29:11.952Z,41.16
2023-03-02T12:31:45.327Z,39.89
2023-03-02T12:34:33.054Z,40.39
2023-03-02T12:37:21.420Z,41.10
2023-03-02T12:40:32.889Z,40.37
2023-03-02T12:43:16.676Z,41.87
2023-03-02T12:46:06.540Z,40.22
2023-03-02T12:48:46.607Z,41.39
2023-03-02T12:51:22.864Z,40.25
2023-03-02T12:54:13.399Z,41.21
2023-03-02T12:56:46.570Z,39.87
2023-03-02T12:59:27.880Z,40.88
2023-03-02T13:02:05.693Z,40.58
2023-03-02T13:04:37.652Z,40.18
2023-03-02T13:07:30.194Z,40.20
2023-03-02T13:10:08.467Z,40.51
2023-03-02T13:12:45.620Z,40.32
2023-03-02T13:15:18.142Z,39.40
2023-03-02T13:17:56.456Z,40.37
2023-03-02T13:20:30.276Z,41.12
2023-03-02T13:23:03.511Z,40.33
2023-03-02T13:25:35.230Z,41.58
2023-03-02T13:28:26.428Z,40.61
2023-03-02T13:31:04.168Z,40.69
2023-03-02T13:33:45.081Z,41.22
2023-03-02T13:36:27.056Z,40.17
2023-03-02T13:39:00.183Z,40.16
2023-03-02T13:41:34.689Z,40.11
2023-03-02T13:44:19.760Z,41.98
2023-03-02T13:46:51.614Z,42.24
2023-03-02T13:49:31.189Z,41.65
2023-03-02T13:52:08.298Z,40.63
2023-03-02T13:54:45.148Z,40.97
2023-03-02T13:57:27.974Z,40.44
2023-03-02T14:00:00.896Z,40.74
2023-03-02T14:02:32.567Z,39.66
2023-03-02T14:05:06.565Z,40.52
2023-03-02T14:07:38.231Z,40.57
2023-03-02T14:10:11.329Z,40.89
2023-03-02T14:12:53.915Z,41.60
2023-03-02T14:15:25.691Z,41.11
2023-03-02T14:17:57.423Z,40.30
2023-03-02T14:20:29.100Z,40.61
2023-03-02T14:23:00.739Z,40.80
2023-03-02T14:25:32.354Z,42.51
2023-03-02T14:28:04.306Z,42.01
2023-03-02T14:30:35.956Z,40.13
2023-03-02T14:33:16.557Z,40.78
2023-03-02T14:35:51.146Z,40.44
2023-03-02T14:38:26.617Z,40.39
2023-03-02T14:40:59.515Z,40.56
2023-03-02T14:43:31.312Z,40.74
2023-03-02T14:46:03.045Z,41.56
2023-03-02T14:48:34.701Z,41.51
2023-03-02T14:51:19.976Z,41.23
2023-03-02T14:53:55.554Z,41.29
2023-03-02T14:56:27.739Z,41.27
2023-03-02T14:59:00.578Z,42.10
2023-03-02T15:01:32.571Z,40.84
2023-03-02T15:04:04.479Z,40.86
2023-03-02T15:06:42.219Z,41.50
2023-03-02T15:09:14.236Z,40.24
2023-03-02T15:11:45.929Z,40.32
2023-03-02T15:14:17.542Z,40.57
2023-03-02T15:16:49.149Z,40.91
2023-03-02T15:19:20.849Z,39.72
2023-03-02T15:21:52.516Z,39.62
2023-03-02T15:24:24.219Z,39.10
2023-03-02T15:26:56.056Z,38.46
2023-03-02T15:29:27.782Z,40.91
2023-03-02T15:31:59.504Z,41.61
2023-03-02T15:34:31.228Z,39.79
2023-03-02T15:37:02.931Z,40.37
2023-03-02T15:39:34.617Z,41.96
2023-03-02T15:42:07.116Z,40.70
2023-03-02T15:44:38.788Z,41.05
2023-03-02T15:47:10.996Z,39.97
2023-03-02T15:49:42.651Z,41.36
2023-03-02T15:52:14.643Z,39.94
2023-03-02T15:54:46.369Z,40.48
2023-03-02T15:57:18.102Z,40.13
2023-03-02T15:59:49.849Z,40.91
2023-03-02T16:02:21.665Z,41.15
2023-03-02T16:04:53.287Z,41.04
2023-03-02T16:07:24.988Z,40.76
2023-03-02T16:09:56.714Z,41.95
2023-03-02T16:12:28.298Z,41.38
2023-03-02T16:14:59.961Z,41.64
2023-03-02T16:17:31.568Z,40.97
2023-03-02T16:20:03.974Z,41.03
2023-03-02T16:22:35.708Z,39.16
2023-03-02T16:25:07.903Z,39.56
2023-03-02T16:27:39.568Z,39.63
2023-03-02T16:30:11.785Z,39.79
2023-03-02T16:32:43.583Z,42.09
2023-03-02T16:35:15.318Z,40.41
2023-03-02T16:37:46.986Z,39.83
2023-03-02T16:40:19.442Z,40.09
2023-03-02T16:42:51.238Z,39.67
2023-03-02T16:45:23.211Z,39.31
2023-03-02T16:47:55.041Z,38.13
2023-03-02T16:50:26.821Z,40.62
2023-03-02T16:52:59.022Z,38.85
2023-03-02T16:55:30.716Z,39.21
2023-03-02T16:58:02.418Z,39.20
2023-03-02T17:00:34.097Z,40.54
2023-03-02T17:03:05.745Z,42.33
2023-03-02T17:05:37.467Z,41.01
2023-03-02T17:08:10.225Z,40.56
2023-03-02T17:10:42.406Z,39.17
2023-03-02T17:13:15.010Z,40.02
2023-03-02T17:15:46.697Z,39.80
2023-03-02T17:18:18.431Z,38.53
2023-03-02T17:20:58.507Z,38.85
2023-03-02T17:23:30.360Z,38.52
2023-03-02T17:26:02.423Z,38.82
2023-03-02T17:28:36.830Z,39.26
2023-03-02T17:31:11.508Z,39.45
2023-03-02T17:33:45.806Z,38.89
2023-03-02T17:36:17.562Z,39.52
2023-03-02T17:38:49.212Z,41.77
2023-03-02T17:41:20.861Z,40.52
2023-03-02T17:43:52.454Z,40.97
2023-03-02T17:46:26.334Z,41.35
2023-03-02T17:49:00.202Z,41.00
2023-03-02T17:51:31.828Z,40.29
2023-03-02T17:54:03.895Z,41.13
2023-03-02T17:56:35.914Z,44.13
2023-03-02T17:59:07.579Z,44.38
2023-03-02T18:01:39.165Z,44.77
2023-03-02T18:04:10.864Z,45.12
2023-03-02T18:06:42.508Z,45.22
2023-03-02T18:09:14.201Z,42.68
2023-03-02T18:11:46.617Z,42.31
2023-03-02T18:14:20.468Z,41.28
2023-03-02T18:16:52.155Z,40.20
2023-03-02T18:19:23.893Z,40.41
2023-03-02T18:21:55.641Z,40.35
2023-03-02T18:24:27.360Z,39.61
2023-03-02T18:26:59.160Z,39.01
2023-03-02T18:29:31.066Z,39.32
2023-03-02T18:32:02.878Z,41.03
2023-03-02T18:34:34.590Z,40.71
2023-03-02T18:37:06.518Z,39.90
2023-03-02T18:39:38.592Z,39.09
2023-03-02T18:42:12.540Z,39.35
2023-03-02T18:44:44.586Z,40.54
2023-03-02T18:47:17.142Z,40.01
2023-03-02T18:49:48.905Z,39.81
2023-03-02T18:52:20.655Z,40.90
2023-03-02T18:54:52.533Z,40.60
2023-03-02T18:57:25.645Z,39.77
2023-03-02T18:59:59.822Z,43.17
2023-03-02T19:02:31.401Z,41.77
2023-03-02T19:05:03.167Z,40.42
2023-03-02T19:07:34.986Z,40.94
2023-03-02T19:10:07.441Z,41.11
2023-03-02T19:12:39.115Z,42.07
2023-03-02T19:15:11.964Z,41.58
2023-03-02T19:17:44.060Z,41.69
2023-03-02T19:20:17.339Z,42.50
2023-03-02T19:22:49.106Z,41.10
2023-03-02T19:25:21.439Z,41.49
2023-03-02T19:27:53.700Z,41.25
2023-03-02T19:30:27.052Z,40.27
2023-03-02T19:32:58.763Z,40.95
2023-03-02T19:35:30.601Z,40.57
2023-03-02T19:38:02.425Z,41.02
2023-03-02T19:40:35.313Z,41.11
2023-03-02T19:43:07.396Z,42.07
2023-03-02T19:45:39.214Z,39.81
2023-03-02T19:48:11.122Z,42.70
2023-03-02T19:50:43.037Z,42.52
2023-03-02T19:53:15.517Z,42.87
2023-03-02T19:55:47.976Z,42.21
2023-03-02T19:58:21.402Z,43.79
2023-03-02T20:00:54.471Z,42.79
2023-03-02T20:03:27.326Z,42.78
2023-03-02T20:05:59.106Z,41.86
2023-03-02T20:08:33.846Z,42.52
2023-03-02T20:11:05.945Z,42.41
2023-03-02T20:13:37.630Z,42.15
2023-03-02T20:16:13.914Z,43.50
2023-03-02T20:18:45.783Z,41.28
2023-03-02T20:21:18.952Z,41.34
2023-03-02T20:23:50.604Z,41.74
2023-03-02T20:26:23.239Z,42.06
2023-03-02T20:28:58.275Z,42.79
2023-03-02T20:31:33.787Z,41.85
2023-03-02T20:34:11.948Z,42.50
2023-03-02T20:36:44.189Z,42.58
2023-03-02T20:39:20.788Z,43.94
2023-03-02T20:41:53.426Z,42.44
2023-03-02T20:44:26.055Z,42.68
2023-03-02T20:47:04.386Z,42.71
2023-03-02T20:49:37.519Z,42.12
2023-03-02T20:52:18.648Z,42.45
2023-03-02T20:54:50.905Z,41.73
2023-03-02T20:57:22.862Z,42.84
2023-03-02T20:59:54.640Z,43.71
2023-03-02T21:02:26.437Z,42.17
2023-03-02T21:04:58.318Z,42.12
2023-03-02T21:07:30.311Z,42.06
2023-03-02T21:10:07.421Z,42.51
2023-03-02T21:12:39.199Z,43.18
2023-03-02T21:15:11.972Z,42.97
2023-03-02T21:17:43.661Z,41.92
2023-03-02T21:20:18.148Z,42.88
2023-03-02T21:22:49.940Z,41.58
2023-03-02T21:25:21.816Z,42.13
2023-03-02T21:27:54.102Z,42.63
2023-03-02T21:30:30.148Z,42.62
2023-03-02T21:33:03.251Z,42.59
2023-03-02T21:35:36.117Z,43.37
2023-03-02T21:38:07.813Z,43.66
2023-03-02T21:40:42.723Z,45.43
2023-03-02T21:43:15.112Z,45.39
2023-03-02T21:45:54.216Z,46.68
2023-03-02T21:48:29.401Z,46.45
2023-03-02T21:51:01.386Z,46.39
2023-03-02T21:53:33.500Z,47.39
2023-03-02T21:56:05.916Z,48.74
2023-03-02T21:58:37.525Z,48.78
2023-03-02T22:01:09.145Z,47.92
2023-03-02T22:03:41.100Z,46.33
2023-03-02T22:06:27.183Z,48.99
2023-03-02T22:08:59.090Z,47.36
2023-03-02T22:11:35.618Z,48.64
2023-03-02T22:14:15.692Z,48.45
2023-03-02T22:16:47.491Z,49.28
2023-03-02T22:19:31.481Z,51.22
2023-03-02T22:22:15.230Z,53.14
2023-03-02T22:24:49.791Z,52.68
2023-03-02T22:27:31.856Z,52.42
2023-03-02T22:30:19.664Z,53.06
2023-03-02T22:32:51.282Z,53.12
2023-03-02T22:35:27.517Z,52.65
2023-03-02T22:38:12.574Z,56.30
2023-03-02T22:40:44.300Z,55.10
2023-03-02T22:43:26.865Z,55.32
2023-03-02T22:46:10.257Z,54.54
2023-03-02T22:48:44.517Z,55.19
2023-03-02T22:51:27.840Z,55.91
2023-03-02T22:54:00.869Z,56.96
2023-03-02T22:56:35.414Z,57.59
2023-03-02T22:59:19.177Z,56.51
2023-03-02T23:01:53.034Z,56.48
2023-03-02T23:04:29.499Z,58.00
2023-03-02T23:07:11.270Z,56.94
2023-03-02T23:09:43.375Z,56.89
2023-03-02T23:12:27.634Z,56.77
2023-03-02T23:14:59.587Z,56.63
2023-03-02T23:17:39.444Z,58.46
2023-03-02T23:20:14.580Z,58.81
2023-03-02T23:22:46.214Z,55.58
2023-03-02T23:25:18.017Z,56.48
2023-03-02T23:27:49.584Z,57.79
2023-03-02T23:30:21.184Z,57.99
2023-03-02T23:32:52.843Z,59.29
2023-03-02T23:35:24.685Z,60.05
2023-03-02T23:37:56.438Z,58.98
2023-03-02T23:40:29.166Z,58.34
2023-03-02T23:43:00.742Z,57.54
2023-03-02T23:45:32.897Z,58.64
2023-03-02T23:48:04.590Z,57.19
2023-03-02T23:50:36.324Z,60.03
2023-03-02T23:53:08.202Z,59.58
2023-03-02T23:55:47.449Z,59.53
2023-03-02T23:58:19.655Z,60.19
